sensor_id;sensor_type;location;lat;lon;timestamp;P1;durP1;ratioP1;P2;durP2;ratioP2
6661;SDS011;3367;48.714;8.994;2023-05-10T00:00:26;7.50;;;0.73;;
6661;SDS011;3367;48.714;8.994;2023-05-10T00:02:52;0.60;;;0.40;;
6661;SDS011;3367;48.714;8.994;2023-05-10T00:05:19;2.10;;;0.50;;
6661;SDS011;3367;48.714;8.994;2023-05-10T00:07:46;0.57;;;0.57;;
6661;SDS011;3367;48.714;8.994;2023-05-10T00:10:13;0.90;;;0.60;;
6661;SDS011;3367;48.714;8.994;2023-05-10T00:12:39;0.53;;;0.40;;
6661;SDS011;3367;48.714;8.994;2023-05-10T00:15:07;0.60;;;0.40;;
6661;SDS011;3367;48.714;8.994;2023-05-10T00:17:37;0.50;;;0.30;;
6661;SDS011;3367;48.714;8.994;2023-05-10T00:20:04;0.60;;;0.40;;
6661;SDS011;3367;48.714;8.994;2023-05-10T00:22:31;1.73;;;0.40;;
6661;SDS011;3367;48.714;8.994;2023-05-10T00:24:58;0.87;;;0.40;;
6661;SDS011;3367;48.714;8.994;2023-05-10T00:27:25;1.10;;;0.40;;
6661;SDS011;3367;48.714;8.994;2023-05-10T00:29:52;0.50;;;0.30;;
6661;SDS011;3367;48.714;8.994;2023-05-10T00:32:18;0.50;;;0.30;;
6661;SDS011;3367;48.714;8.994;2023-05-10T00:34:46;0.53;;;0.37;;
6661;SDS011;3367;48.714;8.994;2023-05-10T00:37:13;0.50;;;0.30;;
6661;SDS011;3367;48.714;8.994;2023-05-10T00:39:40;1.43;;;0.30;;
6661;SDS011;3367;48.714;8.994;2023-05-10T00:42:06;0.83;;;0.50;;
6661;SDS011;3367;48.714;8.994;2023-05-10T00:44:33;0.70;;;0.40;;
6661;SDS011;3367;48.714;8.994;2023-05-10T00:47:00;0.60;;;0.33;;
6661;SDS011;3367;48.714;8.994;2023-05-10T00:49:27;1.57;;;0.50;;
6661;SDS011;3367;48.714;8.994;2023-05-10T00:51:55;2.30;;;0.30;;
6661;SDS011;3367;48.714;8.994;2023-05-10T00:54:22;0.50;;;0.30;;
6661;SDS011;3367;48.714;8.994;2023-05-10T00:56:49;0.47;;;0.30;;
6661;SDS011;3367;48.714;8.994;2023-05-10T00:59:16;2.40;;;0.47;;
6661;SDS011;3367;48.714;8.994;2023-05-10T01:01:43;1.87;;;0.30;;
6661;SDS011;3367;48.714;8.994;2023-05-10T01:04:10;0.50;;;0.30;;
6661;SDS011;3367;48.714;8.994;2023-05-10T01:06:38;1.90;;;0.30;;
6661;SDS011;3367;48.714;8.994;2023-05-10T01:09:06;0.57;;;0.30;;
6661;SDS011;3367;48.714;8.994;2023-05-10T01:11:33;0.50;;;0.30;;
6661;SDS011;3367;48.714;8.994;2023-05-10T01:14:00;0.53;;;0.30;;
6661;SDS011;3367;48.714;8.994;2023-05-10T01:16:28;1.53;;;0.30;;
6661;SDS011;3367;48.714;8.994;2023-05-10T01:18:58;1.37;;;0.50;;
6661;SDS011;3367;48.714;8.994;2023-05-10T01:21:27;0.73;;;0.30;;
6661;SDS011;3367;48.714;8.994;2023-05-10T01:24:18;0.50;;;0.40;;
6661;SDS011;3367;48.714;8.994;2023-05-10T01:27:04;5.53;;;0.40;;
6661;SDS011;3367;48.714;8.994;2023-05-10T01:29:52;0.50;;;0.30;;
6661;SDS011;3367;48.714;8.994;2023-05-10T01:32:44;1.20;;;0.37;;
6661;SDS011;3367;48.714;8.994;2023-05-10T01:35:19;0.50;;;0.40;;
6661;SDS011;3367;48.714;8.994;2023-05-10T01:37:56;0.60;;;0.40;;
6661;SDS011;3367;48.714;8.994;2023-05-10T01:40:30;1.10;;;0.40;;
6661;SDS011;3367;48.714;8.994;2023-05-10T01:43:02;0.57;;;0.40;;
6661;SDS011;3367;48.714;8.994;2023-05-10T01:45:31;0.63;;;0.40;;
6661;SDS011;3367;48.714;8.994;2023-05-10T01:48:05;0.50;;;0.40;;
6661;SDS011;3367;48.714;8.994;2023-05-10T01:50:34;0.70;;;0.40;;
6661;SDS011;3367;48.714;8.994;2023-05-10T01:53:02;1.37;;;0.30;;
6661;SDS011;3367;48.714;8.994;2023-05-10T01:55:33;0.97;;;0.30;;
6661;SDS011;3367;48.714;8.994;2023-05-10T01:58:07;0.60;;;0.40;;
6661;SDS011;3367;48.714;8.994;2023-05-10T02:00:39;1.00;;;0.30;;
6661;SDS011;3367;48.714;8.994;2023-05-10T02:03:10;0.80;;;0.40;;
6661;SDS011;3367;48.714;8.994;2023-05-10T02:05:38;0.50;;;0.40;;
6661;SDS011;3367;48.714;8.994;2023-05-10T02:08:06;1.10;;;0.40;;
6661;SDS011;3367;48.714;8.994;2023-05-10T02:10:34;0.50;;;0.40;;
6661;SDS011;3367;48.714;8.994;2023-05-10T02:13:01;0.50;;;0.30;;
6661;SDS011;3367;48.714;8.994;2023-05-10T02:15:29;1.83;;;0.37;;
6661;SDS011;3367;48.714;8.994;2023-05-10T02:17:57;0.60;;;0.57;;
6661;SDS011;3367;48.714;8.994;2023-05-10T02:20:27;0.70;;;0.40;;
6661;SDS011;3367;48.714;8.994;2023-05-10T02:22:55;0.70;;;0.40;;
6661;SDS011;3367;48.714;8.994;2023-05-10T02:25:23;0.70;;;0.50;;
6661;SDS011;3367;48.714;8.994;2023-05-10T02:27:51;0.93;;;0.50;;
6661;SDS011;3367;48.714;8.994;2023-05-10T02:30:21;1.77;;;0.50;;
6661;SDS011;3367;48.714;8.994;2023-05-10T02:32:49;0.73;;;0.73;;
6661;SDS011;3367;48.714;8.994;2023-05-10T02:35:16;0.60;;;0.53;;
6661;SDS011;3367;48.714;8.994;2023-05-10T02:37:44;0.60;;;0.50;;
6661;SDS011;3367;48.714;8.994;2023-05-10T02:40:12;0.63;;;0.57;;
6661;SDS011;3367;48.714;8.994;2023-05-10T02:42:41;2.20;;;0.80;;
6661;SDS011;3367;48.714;8.994;2023-05-10T02:45:11;0.87;;;0.73;;
6661;SDS011;3367;48.714;8.994;2023-05-10T02:47:39;4.50;;;0.97;;
6661;SDS011;3367;48.714;8.994;2023-05-10T02:50:06;1.10;;;1.00;;
6661;SDS011;3367;48.714;8.994;2023-05-10T02:52:36;0.97;;;0.70;;
6661;SDS011;3367;48.714;8.994;2023-05-10T02:55:08;1.83;;;0.90;;
6661;SDS011;3367;48.714;8.994;2023-05-10T02:57:39;1.70;;;0.80;;
6661;SDS011;3367;48.714;8.994;2023-05-10T03:00:09;2.67;;;0.90;;
6661;SDS011;3367;48.714;8.994;2023-05-10T03:02:37;1.80;;;1.20;;
6661;SDS011;3367;48.714;8.994;2023-05-10T03:05:04;7.17;;;1.10;;
6661;SDS011;3367;48.714;8.994;2023-05-10T03:07:31;1.93;;;1.10;;
6661;SDS011;3367;48.714;8.994;2023-05-10T03:09:58;1.57;;;0.90;;
6661;SDS011;3367;48.714;8.994;2023-05-10T03:12:40;2.90;;;2.70;;
6661;SDS011;3367;48.714;8.994;2023-05-10T03:15:18;2.03;;;1.00;;
6661;SDS011;3367;48.714;8.994;2023-05-10T03:17:51;2.60;;;1.40;;
6661;SDS011;3367;48.714;8.994;2023-05-10T03:20:22;1.00;;;1.00;;
6661;SDS011;3367;48.714;8.994;2023-05-10T03:22:53;1.23;;;1.13;;
6661;SDS011;3367;48.714;8.994;2023-05-10T03:25:24;1.30;;;1.20;;
6661;SDS011;3367;48.714;8.994;2023-05-10T03:27:52;1.20;;;1.10;;
6661;SDS011;3367;48.714;8.994;2023-05-10T03:30:20;1.67;;;1.00;;
6661;SDS011;3367;48.714;8.994;2023-05-10T03:32:47;1.20;;;1.00;;
6661;SDS011;3367;48.714;8.994;2023-05-10T03:35:14;4.83;;;1.70;;
6661;SDS011;3367;48.714;8.994;2023-05-10T03:37:41;1.10;;;1.00;;
6661;SDS011;3367;48.714;8.994;2023-05-10T03:40:08;2.07;;;1.37;;
6661;SDS011;3367;48.714;8.994;2023-05-10T03:42:35;0.80;;;0.80;;
6661;SDS011;3367;48.714;8.994;2023-05-10T03:45:04;0.83;;;0.83;;
6661;SDS011;3367;48.714;8.994;2023-05-10T03:47:32;2.27;;;1.77;;
6661;SDS011;3367;48.714;8.994;2023-05-10T03:49:58;4.30;;;1.80;;
6661;SDS011;3367;48.714;8.994;2023-05-10T03:52:25;4.03;;;1.80;;
6661;SDS011;3367;48.714;8.994;2023-05-10T03:54:52;2.23;;;1.40;;
6661;SDS011;3367;48.714;8.994;2023-05-10T03:57:18;1.23;;;1.00;;
6661;SDS011;3367;48.714;8.994;2023-05-10T03:59:45;5.03;;;1.20;;
6661;SDS011;3367;48.714;8.994;2023-05-10T04:02:13;1.93;;;1.30;;
6661;SDS011;3367;48.714;8.994;2023-05-10T04:04:40;1.40;;;1.30;;
6661;SDS011;3367;48.714;8.994;2023-05-10T04:07:06;1.30;;;1.13;;
6661;SDS011;3367;48.714;8.994;2023-05-10T04:09:34;1.40;;;1.30;;
6661;SDS011;3367;48.714;8.994;2023-05-10T04:12:01;1.57;;;1.47;;
6661;SDS011;3367;48.714;8.994;2023-05-10T04:14:28;1.57;;;1.20;;
6661;SDS011;3367;48.714;8.994;2023-05-10T04:16:54;2.13;;;1.23;;
6661;SDS011;3367;48.714;8.994;2023-05-10T04:19:22;2.20;;;0.80;;
6661;SDS011;3367;48.714;8.994;2023-05-10T04:21:49;1.30;;;1.20;;
6661;SDS011;3367;48.714;8.994;2023-05-10T04:24:16;1.40;;;1.30;;
6661;SDS011;3367;48.714;8.994;2023-05-10T04:26:43;1.60;;;1.43;;
6661;SDS011;3367;48.714;8.994;2023-05-10T04:29:10;1.17;;;1.03;;
6661;SDS011;3367;48.714;8.994;2023-05-10T04:31:37;1.10;;;1.10;;
6661;SDS011;3367;48.714;8.994;2023-05-10T04:34:04;2.10;;;1.37;;
6661;SDS011;3367;48.714;8.994;2023-05-10T04:36:32;2.90;;;1.40;;
6661;SDS011;3367;48.714;8.994;2023-05-10T04:39:00;0.87;;;0.87;;
6661;SDS011;3367;48.714;8.994;2023-05-10T04:41:28;3.93;;;1.60;;
6661;SDS011;3367;48.714;8.994;2023-05-10T04:43:55;2.00;;;1.27;;
6661;SDS011;3367;48.714;8.994;2023-05-10T04:46:22;1.20;;;1.10;;
6661;SDS011;3367;48.714;8.994;2023-05-10T04:48:49;1.90;;;1.20;;
6661;SDS011;3367;48.714;8.994;2023-05-10T04:51:15;1.40;;;1.30;;
6661;SDS011;3367;48.714;8.994;2023-05-10T04:53:43;2.30;;;1.20;;
6661;SDS011;3367;48.714;8.994;2023-05-10T04:56:10;1.90;;;1.23;;
6661;SDS011;3367;48.714;8.994;2023-05-10T04:58:37;1.40;;;1.30;;
6661;SDS011;3367;48.714;8.994;2023-05-10T05:01:06;2.93;;;1.90;;
6661;SDS011;3367;48.714;8.994;2023-05-10T05:03:34;2.47;;;1.30;;
6661;SDS011;3367;48.714;8.994;2023-05-10T05:06:01;2.53;;;2.00;;
6661;SDS011;3367;48.714;8.994;2023-05-10T05:08:28;1.83;;;1.50;;
6661;SDS011;3367;48.714;8.994;2023-05-10T05:10:56;1.97;;;1.40;;
6661;SDS011;3367;48.714;8.994;2023-05-10T05:13:23;1.80;;;1.70;;
6661;SDS011;3367;48.714;8.994;2023-05-10T05:15:49;1.53;;;1.43;;
6661;SDS011;3367;48.714;8.994;2023-05-10T05:18:16;1.33;;;1.23;;
6661;SDS011;3367;48.714;8.994;2023-05-10T05:20:43;2.20;;;1.97;;
6661;SDS011;3367;48.714;8.994;2023-05-10T05:23:09;1.40;;;1.30;;
6661;SDS011;3367;48.714;8.994;2023-05-10T05:25:36;4.20;;;1.60;;
6661;SDS011;3367;48.714;8.994;2023-05-10T05:28:04;1.90;;;1.30;;
6661;SDS011;3367;48.714;8.994;2023-05-10T05:30:31;2.00;;;1.30;;
6661;SDS011;3367;48.714;8.994;2023-05-10T05:32:58;1.77;;;1.40;;
6661;SDS011;3367;48.714;8.994;2023-05-10T05:35:24;1.77;;;1.53;;
6661;SDS011;3367;48.714;8.994;2023-05-10T05:37:51;1.57;;;1.47;;
6661;SDS011;3367;48.714;8.994;2023-05-10T05:40:18;2.10;;;1.33;;
6661;SDS011;3367;48.714;8.994;2023-05-10T05:42:45;3.00;;;1.90;;
6661;SDS011;3367;48.714;8.994;2023-05-10T05:45:13;1.63;;;1.53;;
6661;SDS011;3367;48.714;8.994;2023-05-10T05:47:40;1.83;;;1.50;;
6661;SDS011;3367;48.714;8.994;2023-05-10T05:50:06;3.70;;;1.90;;
6661;SDS011;3367;48.714;8.994;2023-05-10T05:52:34;1.70;;;1.60;;
6661;SDS011;3367;48.714;8.994;2023-05-10T05:55:01;1.97;;;1.87;;
6661;SDS011;3367;48.714;8.994;2023-05-10T05:57:27;3.07;;;1.73;;
6661;SDS011;3367;48.714;8.994;2023-05-10T05:59:54;1.80;;;1.70;;
6661;SDS011;3367;48.714;8.994;2023-05-10T06:02:22;3.57;;;1.57;;
6661;SDS011;3367;48.714;8.994;2023-05-10T06:04:49;2.63;;;1.60;;
6661;SDS011;3367;48.714;8.994;2023-05-10T06:07:16;1.50;;;1.40;;
6661;SDS011;3367;48.714;8.994;2023-05-10T06:09:43;1.43;;;1.33;;
6661;SDS011;3367;48.714;8.994;2023-05-10T06:12:10;3.20;;;2.10;;
6661;SDS011;3367;48.714;8.994;2023-05-10T06:14:37;1.90;;;1.80;;
6661;SDS011;3367;48.714;8.994;2023-05-10T06:17:04;1.80;;;1.70;;
6661;SDS011;3367;48.714;8.994;2023-05-10T06:19:33;1.80;;;1.70;;
6661;SDS011;3367;48.714;8.994;2023-05-10T06:21:59;1.83;;;1.30;;
6661;SDS011;3367;48.714;8.994;2023-05-10T06:24:26;1.77;;;1.50;;
6661;SDS011;3367;48.714;8.994;2023-05-10T06:26:53;1.23;;;1.13;;
6661;SDS011;3367;48.714;8.994;2023-05-10T06:29:19;2.33;;;1.50;;
6661;SDS011;3367;48.714;8.994;2023-05-10T06:31:46;1.87;;;1.20;;
6661;SDS011;3367;48.714;8.994;2023-05-10T06:34:13;2.40;;;1.10;;
6661;SDS011;3367;48.714;8.994;2023-05-10T06:36:41;1.73;;;1.17;;
6661;SDS011;3367;48.714;8.994;2023-05-10T06:39:08;1.23;;;1.13;;
6661;SDS011;3367;48.714;8.994;2023-05-10T06:41:36;1.50;;;1.10;;
6661;SDS011;3367;48.714;8.994;2023-05-10T06:44:03;1.57;;;1.10;;
6661;SDS011;3367;48.714;8.994;2023-05-10T06:46:30;1.23;;;1.13;;
6661;SDS011;3367;48.714;8.994;2023-05-10T06:48:56;1.70;;;1.10;;
6661;SDS011;3367;48.714;8.994;2023-05-10T06:51:23;1.20;;;1.03;;
6661;SDS011;3367;48.714;8.994;2023-05-10T06:53:51;1.70;;;1.60;;
6661;SDS011;3367;48.714;8.994;2023-05-10T06:56:18;1.27;;;1.17;;
6661;SDS011;3367;48.714;8.994;2023-05-10T06:58:46;1.30;;;1.20;;
6661;SDS011;3367;48.714;8.994;2023-05-10T07:01:13;1.40;;;1.30;;
6661;SDS011;3367;48.714;8.994;2023-05-10T07:03:40;2.40;;;1.40;;
6661;SDS011;3367;48.714;8.994;2023-05-10T07:06:06;2.43;;;0.80;;
6661;SDS011;3367;48.714;8.994;2023-05-10T07:08:33;1.93;;;1.83;;
6661;SDS011;3367;48.714;8.994;2023-05-10T07:11:02;1.40;;;1.30;;
6661;SDS011;3367;48.714;8.994;2023-05-10T07:13:30;1.50;;;1.40;;
6661;SDS011;3367;48.714;8.994;2023-05-10T07:15:57;1.10;;;1.10;;
6661;SDS011;3367;48.714;8.994;2023-05-10T07:18:24;1.00;;;0.97;;
6661;SDS011;3367;48.714;8.994;2023-05-10T07:20:51;1.00;;;0.90;;
6661;SDS011;3367;48.714;8.994;2023-05-10T07:23:18;1.73;;;0.90;;
6661;SDS011;3367;48.714;8.994;2023-05-10T07:25:45;3.90;;;1.17;;
6661;SDS011;3367;48.714;8.994;2023-05-10T07:28:14;2.93;;;1.00;;
6661;SDS011;3367;48.714;8.994;2023-05-10T07:30:41;4.53;;;1.30;;
6661;SDS011;3367;48.714;8.994;2023-05-10T07:33:08;1.67;;;1.07;;
6661;SDS011;3367;48.714;8.994;2023-05-10T07:35:36;5.90;;;1.37;;
6661;SDS011;3367;48.714;8.994;2023-05-10T07:38:03;2.00;;;0.70;;
6661;SDS011;3367;48.714;8.994;2023-05-10T07:40:30;6.27;;;1.20;;
6661;SDS011;3367;48.714;8.994;2023-05-10T07:42:57;1.03;;;0.90;;
6661;SDS011;3367;48.714;8.994;2023-05-10T07:45:26;1.20;;;0.90;;
6661;SDS011;3367;48.714;8.994;2023-05-10T07:47:52;3.67;;;1.07;;
6661;SDS011;3367;48.714;8.994;2023-05-10T07:50:19;2.20;;;0.83;;
6661;SDS011;3367;48.714;8.994;2023-05-10T07:52:46;1.40;;;0.70;;
6661;SDS011;3367;48.714;8.994;2023-05-10T07:55:13;1.90;;;0.70;;
6661;SDS011;3367;48.714;8.994;2023-05-10T07:57:41;1.00;;;0.70;;
6661;SDS011;3367;48.714;8.994;2023-05-10T08:00:08;2.13;;;1.60;;
6661;SDS011;3367;48.714;8.994;2023-05-10T08:02:39;1.83;;;0.97;;
6661;SDS011;3367;48.714;8.994;2023-05-10T08:05:07;1.67;;;0.67;;
6661;SDS011;3367;48.714;8.994;2023-05-10T08:07:33;2.17;;;1.00;;
6661;SDS011;3367;48.714;8.994;2023-05-10T08:10:00;2.50;;;1.17;;
6661;SDS011;3367;48.714;8.994;2023-05-10T08:12:27;1.27;;;0.90;;
6661;SDS011;3367;48.714;8.994;2023-05-10T08:14:54;0.90;;;0.80;;
6661;SDS011;3367;48.714;8.994;2023-05-10T08:17:20;2.50;;;1.77;;
6661;SDS011;3367;48.714;8.994;2023-05-10T08:19:48;1.13;;;0.70;;
6661;SDS011;3367;48.714;8.994;2023-05-10T08:22:15;1.10;;;1.00;;
6661;SDS011;3367;48.714;8.994;2023-05-10T08:24:42;3.33;;;0.60;;
6661;SDS011;3367;48.714;8.994;2023-05-10T08:27:08;0.60;;;0.53;;
6661;SDS011;3367;48.714;8.994;2023-05-10T08:29:35;2.07;;;1.17;;
6661;SDS011;3367;48.714;8.994;2023-05-10T08:32:02;6.77;;;1.13;;
6661;SDS011;3367;48.714;8.994;2023-05-10T08:34:28;1.83;;;0.77;;
6661;SDS011;3367;48.714;8.994;2023-05-10T08:36:57;0.70;;;0.67;;
6661;SDS011;3367;48.714;8.994;2023-05-10T08:39:24;0.83;;;0.83;;
6661;SDS011;3367;48.714;8.994;2023-05-10T08:41:51;4.90;;;3.20;;
6661;SDS011;3367;48.714;8.994;2023-05-10T08:44:20;1.60;;;0.80;;
6661;SDS011;3367;48.714;8.994;2023-05-10T08:46:46;3.10;;;0.77;;
6661;SDS011;3367;48.714;8.994;2023-05-10T08:49:19;0.90;;;0.70;;
6661;SDS011;3367;48.714;8.994;2023-05-10T08:51:47;0.67;;;0.40;;
6661;SDS011;3367;48.714;8.994;2023-05-10T08:54:19;0.60;;;0.40;;
6661;SDS011;3367;48.714;8.994;2023-05-10T08:56:46;0.70;;;0.60;;
6661;SDS011;3367;48.714;8.994;2023-05-10T08:59:12;2.93;;;0.77;;
6661;SDS011;3367;48.714;8.994;2023-05-10T09:01:40;0.60;;;0.50;;
6661;SDS011;3367;48.714;8.994;2023-05-10T09:04:09;1.07;;;0.53;;
6661;SDS011;3367;48.714;8.994;2023-05-10T09:06:36;1.00;;;0.60;;
6661;SDS011;3367;48.714;8.994;2023-05-10T09:09:04;3.43;;;0.67;;
6661;SDS011;3367;48.714;8.994;2023-05-10T09:11:32;0.97;;;0.63;;
6661;SDS011;3367;48.714;8.994;2023-05-10T09:13:59;3.33;;;0.50;;
6661;SDS011;3367;48.714;8.994;2023-05-10T09:16:27;1.03;;;0.47;;
6661;SDS011;3367;48.714;8.994;2023-05-10T09:18:53;1.90;;;0.50;;
6661;SDS011;3367;48.714;8.994;2023-05-10T09:21:20;0.60;;;0.43;;
6661;SDS011;3367;48.714;8.994;2023-05-10T09:23:47;1.20;;;0.57;;
6661;SDS011;3367;48.714;8.994;2023-05-10T09:26:14;0.80;;;0.80;;
6661;SDS011;3367;48.714;8.994;2023-05-10T09:28:53;3.07;;;1.20;;
6661;SDS011;3367;48.714;8.994;2023-05-10T09:31:21;1.40;;;0.63;;
6661;SDS011;3367;48.714;8.994;2023-05-10T09:33:49;0.73;;;0.60;;
6661;SDS011;3367;48.714;8.994;2023-05-10T09:36:17;1.17;;;0.60;;
6661;SDS011;3367;48.714;8.994;2023-05-10T09:38:47;0.60;;;0.50;;
6661;SDS011;3367;48.714;8.994;2023-05-10T09:41:18;1.57;;;0.60;;
6661;SDS011;3367;48.714;8.994;2023-05-10T09:43:46;0.90;;;0.30;;
6661;SDS011;3367;48.714;8.994;2023-05-10T09:46:14;0.80;;;0.47;;
6661;SDS011;3367;48.714;8.994;2023-05-10T09:48:42;1.10;;;0.43;;
6661;SDS011;3367;48.714;8.994;2023-05-10T09:51:10;0.87;;;0.50;;
6661;SDS011;3367;48.714;8.994;2023-05-10T09:53:36;0.80;;;0.40;;
6661;SDS011;3367;48.714;8.994;2023-05-10T09:56:03;0.70;;;0.33;;
6661;SDS011;3367;48.714;8.994;2023-05-10T09:58:30;5.60;;;0.90;;
6661;SDS011;3367;48.714;8.994;2023-05-10T10:00:57;6.00;;;0.57;;
6661;SDS011;3367;48.714;8.994;2023-05-10T10:03:25;1.80;;;0.50;;
6661;SDS011;3367;48.714;8.994;2023-05-10T10:05:52;2.03;;;0.70;;
6661;SDS011;3367;48.714;8.994;2023-05-10T10:08:21;2.03;;;0.50;;
6661;SDS011;3367;48.714;8.994;2023-05-10T10:10:47;3.70;;;1.07;;
6661;SDS011;3367;48.714;8.994;2023-05-10T10:13:15;1.90;;;0.80;;
6661;SDS011;3367;48.714;8.994;2023-05-10T10:15:42;1.47;;;0.70;;
6661;SDS011;3367;48.714;8.994;2023-05-10T10:18:12;0.80;;;0.80;;
6661;SDS011;3367;48.714;8.994;2023-05-10T10:20:44;1.10;;;1.00;;
6661;SDS011;3367;48.714;8.994;2023-05-10T10:23:12;0.80;;;0.60;;
6661;SDS011;3367;48.714;8.994;2023-05-10T10:25:39;0.97;;;0.47;;
6661;SDS011;3367;48.714;8.994;2023-05-10T10:28:09;0.60;;;0.60;;
6661;SDS011;3367;48.714;8.994;2023-05-10T10:30:43;0.70;;;0.43;;
6661;SDS011;3367;48.714;8.994;2023-05-10T10:33:24;0.87;;;0.53;;
6661;SDS011;3367;48.714;8.994;2023-05-10T10:36:11;3.53;;;0.80;;
6661;SDS011;3367;48.714;8.994;2023-05-10T10:38:55;2.30;;;0.73;;
6661;SDS011;3367;48.714;8.994;2023-05-10T10:41:27;2.17;;;0.50;;
6661;SDS011;3367;48.714;8.994;2023-05-10T10:47:00;2.37;;;0.50;;
6661;SDS011;3367;48.714;8.994;2023-05-10T10:49:33;0.77;;;0.70;;
6661;SDS011;3367;48.714;8.994;2023-05-10T10:54:54;2.03;;;0.90;;
6661;SDS011;3367;48.714;8.994;2023-05-10T10:57:25;2.90;;;0.60;;
6661;SDS011;3367;48.714;8.994;2023-05-10T10:59:54;1.40;;;0.50;;
6661;SDS011;3367;48.714;8.994;2023-05-10T11:02:50;0.60;;;0.40;;
6661;SDS011;3367;48.714;8.994;2023-05-10T11:05:25;0.60;;;0.47;;
6661;SDS011;3367;48.714;8.994;2023-05-10T11:07:59;3.90;;;0.40;;
6661;SDS011;3367;48.714;8.994;2023-05-10T11:10:32;0.67;;;0.50;;
6661;SDS011;3367;48.714;8.994;2023-05-10T11:12:58;0.70;;;0.50;;
6661;SDS011;3367;48.714;8.994;2023-05-10T11:15:31;2.13;;;1.30;;
6661;SDS011;3367;48.714;8.994;2023-05-10T11:17:58;1.93;;;0.50;;
6661;SDS011;3367;48.714;8.994;2023-05-10T11:20:27;2.00;;;0.70;;
6661;SDS011;3367;48.714;8.994;2023-05-10T11:22:58;1.67;;;0.50;;
6661;SDS011;3367;48.714;8.994;2023-05-10T11:25:41;3.10;;;0.77;;
6661;SDS011;3367;48.714;8.994;2023-05-10T11:28:09;1.20;;;0.57;;
6661;SDS011;3367;48.714;8.994;2023-05-10T11:30:37;2.10;;;0.57;;
6661;SDS011;3367;48.714;8.994;2023-05-10T11:33:04;0.80;;;0.60;;
6661;SDS011;3367;48.714;8.994;2023-05-10T11:35:32;1.53;;;0.40;;
6661;SDS011;3367;48.714;8.994;2023-05-10T11:38:05;1.43;;;0.50;;
6661;SDS011;3367;48.714;8.994;2023-05-10T11:40:32;1.20;;;0.70;;
6661;SDS011;3367;48.714;8.994;2023-05-10T11:42:59;0.70;;;0.60;;
6661;SDS011;3367;48.714;8.994;2023-05-10T11:45:25;0.80;;;0.50;;
6661;SDS011;3367;48.714;8.994;2023-05-10T11:47:55;0.70;;;0.50;;
6661;SDS011;3367;48.714;8.994;2023-05-10T11:50:22;2.90;;;0.90;;
6661;SDS011;3367;48.714;8.994;2023-05-10T11:52:52;1.50;;;0.87;;
6661;SDS011;3367;48.714;8.994;2023-05-10T11:55:19;1.93;;;0.53;;
6661;SDS011;3367;48.714;8.994;2023-05-10T11:57:46;1.57;;;0.60;;
6661;SDS011;3367;48.714;8.994;2023-05-10T12:00:13;1.90;;;0.60;;
6661;SDS011;3367;48.714;8.994;2023-05-10T12:02:40;1.10;;;0.97;;
6661;SDS011;3367;48.714;8.994;2023-05-10T12:05:09;4.83;;;0.80;;
6661;SDS011;3367;48.714;8.994;2023-05-10T12:07:36;1.40;;;0.80;;
6661;SDS011;3367;48.714;8.994;2023-05-10T12:10:06;3.00;;;0.70;;
6661;SDS011;3367;48.714;8.994;2023-05-10T12:12:38;1.20;;;0.80;;
6661;SDS011;3367;48.714;8.994;2023-05-10T12:15:07;1.33;;;0.70;;
6661;SDS011;3367;48.714;8.994;2023-05-10T12:17:37;2.73;;;0.77;;
6661;SDS011;3367;48.714;8.994;2023-05-10T12:20:19;1.50;;;1.23;;
6661;SDS011;3367;48.714;8.994;2023-05-10T12:22:48;1.53;;;0.63;;
6661;SDS011;3367;48.714;8.994;2023-05-10T12:25:16;2.33;;;0.70;;
6661;SDS011;3367;48.714;8.994;2023-05-10T12:27:50;3.20;;;0.83;;
6661;SDS011;3367;48.714;8.994;2023-05-10T12:30:21;1.53;;;1.10;;
6661;SDS011;3367;48.714;8.994;2023-05-10T12:32:48;1.40;;;0.77;;
6661;SDS011;3367;48.714;8.994;2023-05-10T12:35:15;0.93;;;0.63;;
6661;SDS011;3367;48.714;8.994;2023-05-10T12:37:47;1.00;;;0.63;;
6661;SDS011;3367;48.714;8.994;2023-05-10T12:40:14;1.27;;;0.87;;
6661;SDS011;3367;48.714;8.994;2023-05-10T12:42:40;1.70;;;0.80;;
6661;SDS011;3367;48.714;8.994;2023-05-10T12:45:08;2.60;;;0.80;;
6661;SDS011;3367;48.714;8.994;2023-05-10T12:47:35;1.00;;;0.90;;
6661;SDS011;3367;48.714;8.994;2023-05-10T12:50:03;1.00;;;0.70;;
6661;SDS011;3367;48.714;8.994;2023-05-10T12:52:31;2.17;;;0.80;;
6661;SDS011;3367;48.714;8.994;2023-05-10T12:54:59;1.23;;;0.80;;
6661;SDS011;3367;48.714;8.994;2023-05-10T12:57:26;1.90;;;0.70;;
6661;SDS011;3367;48.714;8.994;2023-05-10T12:59:53;2.93;;;0.60;;
6661;SDS011;3367;48.714;8.994;2023-05-10T13:02:20;0.80;;;0.50;;
6661;SDS011;3367;48.714;8.994;2023-05-10T13:04:48;0.80;;;0.50;;
6661;SDS011;3367;48.714;8.994;2023-05-10T13:07:15;0.90;;;0.60;;
6661;SDS011;3367;48.714;8.994;2023-05-10T13:09:41;1.90;;;0.70;;
6661;SDS011;3367;48.714;8.994;2023-05-10T13:12:09;1.20;;;0.83;;
6661;SDS011;3367;48.714;8.994;2023-05-10T13:14:36;1.20;;;0.90;;
6661;SDS011;3367;48.714;8.994;2023-05-10T13:17:05;2.27;;;0.60;;
6661;SDS011;3367;48.714;8.994;2023-05-10T13:19:32;2.50;;;0.90;;
6661;SDS011;3367;48.714;8.994;2023-05-10T13:21:58;1.63;;;1.23;;
6661;SDS011;3367;48.714;8.994;2023-05-10T13:24:25;2.73;;;0.80;;
6661;SDS011;3367;48.714;8.994;2023-05-10T13:26:52;3.33;;;1.10;;
6661;SDS011;3367;48.714;8.994;2023-05-10T13:29:20;2.83;;;0.83;;
6661;SDS011;3367;48.714;8.994;2023-05-10T13:31:47;2.70;;;0.83;;
6661;SDS011;3367;48.714;8.994;2023-05-10T13:34:14;2.70;;;1.30;;
6661;SDS011;3367;48.714;8.994;2023-05-10T13:36:41;2.90;;;1.00;;
6661;SDS011;3367;48.714;8.994;2023-05-10T13:39:07;2.87;;;1.50;;
6661;SDS011;3367;48.714;8.994;2023-05-10T13:41:34;1.50;;;0.93;;
6661;SDS011;3367;48.714;8.994;2023-05-10T13:44:01;1.67;;;1.13;;
6661;SDS011;3367;48.714;8.994;2023-05-10T13:46:30;3.80;;;1.80;;
6661;SDS011;3367;48.714;8.994;2023-05-10T13:48:56;2.10;;;0.70;;
6661;SDS011;3367;48.714;8.994;2023-05-10T13:51:23;0.90;;;0.60;;
6661;SDS011;3367;48.714;8.994;2023-05-10T13:53:50;1.10;;;0.77;;
6661;SDS011;3367;48.714;8.994;2023-05-10T13:56:17;0.90;;;0.90;;
6661;SDS011;3367;48.714;8.994;2023-05-10T13:58:43;0.90;;;0.80;;
6661;SDS011;3367;48.714;8.994;2023-05-10T14:01:10;1.50;;;0.63;;
6661;SDS011;3367;48.714;8.994;2023-05-10T14:03:39;1.83;;;0.90;;
6661;SDS011;3367;48.714;8.994;2023-05-10T14:06:06;2.30;;;0.80;;
6661;SDS011;3367;48.714;8.994;2023-05-10T14:08:33;1.63;;;0.70;;
6661;SDS011;3367;48.714;8.994;2023-05-10T14:11:00;3.27;;;0.80;;
6661;SDS011;3367;48.714;8.994;2023-05-10T14:13:27;1.93;;;0.73;;
6661;SDS011;3367;48.714;8.994;2023-05-10T14:15:54;1.07;;;0.83;;
6661;SDS011;3367;48.714;8.994;2023-05-10T14:18:21;2.00;;;0.50;;
6661;SDS011;3367;48.714;8.994;2023-05-10T14:20:49;2.00;;;1.17;;
6661;SDS011;3367;48.714;8.994;2023-05-10T14:23:16;1.43;;;0.63;;
6661;SDS011;3367;48.714;8.994;2023-05-10T14:25:44;0.70;;;0.50;;
6661;SDS011;3367;48.714;8.994;2023-05-10T14:28:11;1.47;;;0.60;;
6661;SDS011;3367;48.714;8.994;2023-05-10T14:30:38;2.00;;;0.70;;
6661;SDS011;3367;48.714;8.994;2023-05-10T14:33:05;2.93;;;0.70;;
6661;SDS011;3367;48.714;8.994;2023-05-10T14:35:32;3.43;;;0.70;;
6661;SDS011;3367;48.714;8.994;2023-05-10T14:38:01;0.70;;;0.43;;
6661;SDS011;3367;48.714;8.994;2023-05-10T14:40:28;1.77;;;0.80;;
6661;SDS011;3367;48.714;8.994;2023-05-10T14:42:55;1.43;;;0.60;;
6661;SDS011;3367;48.714;8.994;2023-05-10T14:45:22;3.73;;;0.90;;
6661;SDS011;3367;48.714;8.994;2023-05-10T14:47:49;2.67;;;0.70;;
6661;SDS011;3367;48.714;8.994;2023-05-10T14:50:16;1.20;;;0.90;;
6661;SDS011;3367;48.714;8.994;2023-05-10T14:52:43;2.70;;;0.60;;
6661;SDS011;3367;48.714;8.994;2023-05-10T14:55:12;1.10;;;0.60;;
6661;SDS011;3367;48.714;8.994;2023-05-10T14:57:41;2.00;;;0.70;;
6661;SDS011;3367;48.714;8.994;2023-05-10T15:00:09;1.40;;;0.57;;
6661;SDS011;3367;48.714;8.994;2023-05-10T15:02:37;2.03;;;0.60;;
6661;SDS011;3367;48.714;8.994;2023-05-10T15:05:04;1.23;;;0.60;;
6661;SDS011;3367;48.714;8.994;2023-05-10T15:07:32;0.70;;;0.40;;
6661;SDS011;3367;48.714;8.994;2023-05-10T15:09:58;1.07;;;0.90;;
6661;SDS011;3367;48.714;8.994;2023-05-10T15:12:27;2.20;;;0.73;;
6661;SDS011;3367;48.714;8.994;2023-05-10T15:14:54;1.30;;;0.70;;
6661;SDS011;3367;48.714;8.994;2023-05-10T15:17:21;1.73;;;0.80;;
6661;SDS011;3367;48.714;8.994;2023-05-10T15:19:47;1.00;;;0.60;;
6661;SDS011;3367;48.714;8.994;2023-05-10T15:22:15;1.43;;;0.50;;
6661;SDS011;3367;48.714;8.994;2023-05-10T15:24:42;1.67;;;0.70;;
6661;SDS011;3367;48.714;8.994;2023-05-10T15:27:08;0.70;;;0.50;;